Time;durP1;ratioP1;P1;durP2;ratioP2;P2;SDS_P1;SDS_P2;PMS_P1;PMS_P2;Temp;Humidity;BMP_temperature;BMP_pressure;BME280_temperature;BME280_humidity;BME280_pressure;Samples;Min_cycle;Max_cycle;Signal;HPM_P1;HPM_P2
2022/09/24 00:00:33;;;;;;;7.82;6.55;;;10.60;99.90;;;;;;4605640;27;10001305;-79
2022/09/24 00:02:58;;;;;;;8.95;7.45;;;10.50;99.90;;;;;;5124678;27;20795;-79
2022/09/24 00:05:24;;;;;;;9.20;7.75;;;10.50;99.90;;;;;;5136613;27;20022;-79
2022/09/24 00:07:49;;;;;;;9.70;7.80;;;10.50;99.90;;;;;;5136929;27;20019;-79
2022/09/24 00:10:15;;;;;;;9.10;7.07;;;10.50;99.90;;;;;;5121621;27;20110;-79
2022/09/24 00:12:41;;;;;;;7.95;7.07;;;10.50;99.90;;;;;;5118512;27;20506;-79
2022/09/24 00:15:07;;;;;;;7.68;6.88;;;10.50;99.90;;;;;;5123933;27;20015;-79
2022/09/24 00:17:32;;;;;;;9.80;7.45;;;10.50;99.90;;;;;;5128135;27;20046;-79
2022/09/24 00:19:58;;;;;;;11.23;8.80;;;10.40;99.90;;;;;;5123581;27;20027;-79
2022/09/24 00:22:23;;;;;;;13.18;9.90;;;10.40;99.90;;;;;;5132634;27;20035;-79
2022/09/24 00:27:33;;;;;;;13.38;9.40;;;10.30;99.90;;;;;;5127557;27;20114;-79
2022/09/24 00:29:58;;;;;;;10.55;9.07;;;10.30;99.90;;;;;;5125205;27;20106;-79
2022/09/24 00:32:24;;;;;;;14.77;9.57;;;10.40;99.90;;;;;;5138892;27;20019;-79
2022/09/24 00:34:51;;;;;;;13.13;8.75;;;10.30;99.90;;;;;;5137891;27;20007;-79
2022/09/24 00:37:21;;;;;;;11.77;9.05;;;10.20;99.90;;;;;;5136397;27;20019;-79
2022/09/24 00:39:46;;;;;;;11.38;9.43;;;10.20;99.90;;;;;;5133914;27;20034;-78
2022/09/24 00:42:12;;;;;;;11.27;9.43;;;10.10;99.90;;;;;;5112024;27;20035;-79
2022/09/24 00:44:47;;;;;;;11.77;9.23;;;10.00;99.90;;;;;;5092247;28;20058;-79
2022/09/24 00:47:36;;;;;;;11.50;9.93;;;10.00;99.90;;;;;;5104668;27;20116;-79
2022/09/24 00:50:22;;;;;;;13.18;10.90;;;10.00;99.90;;;;;;5107079;27;20031;-79
2022/09/24 00:53:18;;;;;;;13.32;10.77;;;10.00;99.90;;;;;;5102751;27;20426;-79
2022/09/24 00:55:49;;;;;;;15.55;12.18;;;9.90;99.90;;;;;;5103881;27;20032;-78
2022/09/24 00:58:15;;;;;;;12.57;11.15;;;9.80;99.90;;;;;;5109497;27;20016;-78
2022/09/24 01:00:44;;;;;;;12.02;10.13;;;9.70;99.90;;;;;;5111840;27;20020;-79
2022/09/24 01:03:22;;;;;;;12.50;10.30;;;9.70;99.90;;;;;;5100356;27;20061;-78
2022/09/24 01:05:48;;;;;;;13.23;10.80;;;9.60;99.90;;;;;;5112110;27;20030;-79
2022/09/24 01:08:16;;;;;;;11.60;10.40;;;9.60;99.90;;;;;;5111247;27;20770;-78
2022/09/24 01:10:56;;;;;;;12.40;9.82;;;9.60;99.90;;;;;;5114114;27;20038;-79
2022/09/24 01:13:40;;;;;;;11.00;9.65;;;9.60;99.90;;;;;;5109557;27;20388;-78
2022/09/24 01:16:24;;;;;;;;;;;9.60;99.90;;;;;;5100350;27;20090;-79
2022/09/24 01:19:27;;;;;;;10.40;7.85;;;9.60;99.90;;;;;;5112913;27;20367;-79
2022/09/24 01:22:00;;;;;;;10.10;8.23;;;9.50;99.90;;;;;;5110711;27;20477;-79
2022/09/24 01:25:09;;;;;;;9.32;8.23;;;9.50;99.90;;;;;;5110551;27;20035;-79
2022/09/24 01:28:06;;;;;;;11.45;9.80;;;9.60;99.90;;;;;;5110534;27;20037;-79
2022/09/24 01:30:37;;;;;;;10.70;9.38;;;9.60;99.90;;;;;;5114442;27;20492;-79
2022/09/24 01:33:06;;;;;;;13.32;9.85;;;9.60;99.90;;;;;;5110921;27;20036;-79
2022/09/24 01:35:44;;;;;;;10.27;9.18;;;9.70;99.90;;;;;;5111240;27;20027;-79
2022/09/24 01:38:32;;;;;;;10.55;9.18;;;9.70;99.90;;;;;;5109973;27;20427;-78
2022/09/24 01:41:01;;;;;;;11.80;10.00;;;9.70;99.90;;;;;;5112894;27;20039;-79
2022/09/24 01:43:29;;;;;;;10.52;9.38;;;9.70;99.90;;;;;;5121730;27;20053;-79
2022/09/24 01:45:59;;;;;;;12.85;11.20;;;9.70;99.90;;;;;;5133035;27;20363;-79
2022/09/24 01:48:25;;;;;;;10.95;9.32;;;9.70;99.90;;;;;;5135231;27;20041;-79
2022/09/24 01:51:02;;;;;;;10.85;9.70;;;9.70;99.90;;;;;;5132840;27;20417;-78
2022/09/24 01:53:39;;;;;;;10.90;9.63;;;9.70;99.90;;;;;;5126204;27;20567;-79
2022/09/24 01:56:09;;;;;;;12.10;10.10;;;9.70;99.90;;;;;;5128328;27;20034;-78
2022/09/24 01:58:57;;;;;;;11.43;9.43;;;9.70;99.90;;;;;;5119908;27;20438;-79
2022/09/24 02:01:50;;;;;;;9.32;7.85;;;9.70;99.90;;;;;;5120459;27;20046;-79
2022/09/24 02:04:18;;;;;;;9.63;8.48;;;9.70;99.90;;;;;;5129834;27;20031;-79
2022/09/24 02:06:59;;;;;;;10.18;8.48;;;9.70;99.90;;;;;;5127208;27;20084;-79
2022/09/24 02:09:35;;;;;;;9.27;7.72;;;9.80;99.90;;;;;;5125776;27;20047;-78
2022/09/24 02:12:28;;;;;;;8.07;6.82;;;9.80;99.90;;;;;;5123838;27;20025;-79
2022/09/24 02:15:26;;;;;;;8.35;7.53;;;9.80;99.90;;;;;;5121127;27;20019;-79
2022/09/24 02:17:56;;;;;;;8.48;6.82;;;9.80;99.90;;;;;;5088499;27;20099;-79
2022/09/24 02:20:24;;;;;;;8.57;7.68;;;9.80;99.90;;;;;;5139080;27;20040;-79
2022/09/24 02:22:51;;;;;;;8.55;7.75;;;9.80;99.90;;;;;;5137377;27;20632;-78
2022/09/24 02:25:22;;;;;;;9.88;8.50;;;9.70;99.90;;;;;;5135233;27;20365;-79
2022/09/24 02:27:47;;;;;;;10.38;9.27;;;9.70;99.90;;;;;;5120310;27;20038;-78
2022/09/24 02:30:13;;;;;;;12.98;10.45;;;9.70;99.90;;;;;;5138208;27;20026;-79
2022/09/24 02:32:41;;;;;;;12.65;10.07;;;9.70;99.90;;;;;;5122603;27;20022;-79
2022/09/24 02:35:09;;;;;;;12.52;10.45;;;9.70;99.90;;;;;;5134101;27;20108;-79
2022/09/24 02:37:40;;;;;;;12.75;10.30;;;9.70;99.90;;;;;;5129102;27;20027;-79
2022/09/24 02:40:08;;;;;;;23.13;15.35;;;9.70;99.90;;;;;;5125799;27;20031;-78
2022/09/24 02:42:34;;;;;;;26.35;15.70;;;9.70;99.90;;;;;;5135978;27;20034;-79
2022/09/24 02:45:01;;;;;;;21.77;14.23;;;9.70;99.90;;;;;;5127878;27;20035;-79
2022/09/24 02:47:27;;;;;;;18.35;12.35;;;9.70;99.90;;;;;;5126658;27;20569;-79
2022/09/24 02:49:54;;;;;;;16.30;11.98;;;9.70;99.90;;;;;;5126376;27;20061;-79
2022/09/24 02:52:21;;;;;;;18.85;12.23;;;9.70;99.90;;;;;;5122022;27;20045;-79
2022/09/24 02:54:47;;;;;;;15.70;10.48;;;9.60;99.90;;;;;;5125127;27;20023;-78
2022/09/24 02:57:12;;;;;;;14.00;10.18;;;9.60;99.90;;;;;;5131068;27;20712;-78
2022/09/24 02:59:38;;;;;;;11.77;9.40;;;9.60;99.90;;;;;;5124157;27;20031;-79
2022/09/24 03:02:04;;;;;;;10.90;8.93;;;9.60;99.90;;;;;;5140594;27;20026;-79
2022/09/24 03:04:30;;;;;;;11.00;8.65;;;9.50;99.90;;;;;;5128138;27;20537;-78
2022/09/24 03:06:56;;;;;;;9.68;8.38;;;9.50;99.90;;;;;;5127764;27;20483;-78
2022/09/24 03:09:21;;;;;;;8.75;7.85;;;9.60;99.90;;;;;;5136904;27;20027;-78
2022/09/24 03:11:47;;;;;;;10.77;8.45;;;9.60;99.90;;;;;;5134501;27;20018;-78
2022/09/24 03:14:13;;;;;;;10.90;8.23;;;9.50;99.90;;;;;;5137737;27;20025;-78
2022/09/24 03:16:38;;;;;;;10.05;8.95;;;9.60;99.90;;;;;;5118029;27;20034;-78
2022/09/24 03:19:05;;;;;;;10.10;8.77;;;9.60;99.90;;;;;;5134287;27;20079;-78
2022/09/24 03:21:31;;;;;;;10.30;8.90;;;9.60;99.90;;;;;;5116397;27;20035;-78
2022/09/24 03:23:56;;;;;;;8.05;7.25;;;9.60;99.90;;;;;;5126153;27;20450;-78
2022/09/24 03:26:22;;;;;;;9.18;8.13;;;9.60;99.90;;;;;;5129863;27;20027;-78
2022/09/24 03:28:48;;;;;;;10.07;8.27;;;9.60;99.90;;;;;;5136502;27;20023;-78
2022/09/24 03:31:14;;;;;;;8.50;7.65;;;9.50;99.90;;;;;;5131059;27;20096;-78
2022/09/24 03:33:45;;;;;;;9.98;8.23;;;9.50;99.90;;;;;;5133884;27;20127;-78
2022/09/24 03:36:15;;;;;;;8.88;7.97;;;9.50;99.90;;;;;;5129643;27;20110;-78
2022/09/24 03:38:41;;;;;;;10.02;8.25;;;9.50;99.90;;;;;;5126108;27;20113;-78
2022/09/24 03:41:09;;;;;;;9.25;7.97;;;9.40;99.90;;;;;;5123505;27;20617;-78
2022/09/24 03:43:35;;;;;;;10.32;7.68;;;9.40;99.90;;;;;;5133088;27;20066;-78
2022/09/24 03:46:02;;;;;;;9.75;8.75;;;9.40;99.90;;;;;;5104791;27;20031;-78
2022/09/24 03:48:29;;;;;;;9.60;8.55;;;9.40;99.90;;;;;;5113947;27;20519;-78
2022/09/24 03:50:55;;;;;;;9.02;8.13;;;9.40;99.90;;;;;;5122639;27;20027;-79
2022/09/24 03:53:21;;;;;;;8.60;7.63;;;9.40;99.90;;;;;;5129623;27;20018;-78
2022/09/24 03:55:55;;;;;;;9.88;8.80;;;9.40;99.90;;;;;;5118669;27;20429;-78
2022/09/24 03:58:21;;;;;;;10.35;8.48;;;9.40;99.90;;;;;;5121095;27;20459;-78
2022/09/24 04:00:46;;;;;;;11.63;10.05;;;9.30;99.90;;;;;;5135917;27;20074;-78
2022/09/24 04:03:12;;;;;;;11.80;10.52;;;9.30;99.90;;;;;;5140640;27;20019;-78
2022/09/24 04:05:39;;;;;;;15.38;11.30;;;9.30;99.90;;;;;;5122180;27;20015;-78
2022/09/24 04:08:05;;;;;;;14.25;11.27;;;9.30;99.90;;;;;;5136428;27;20042;-78
2022/09/24 04:10:30;;;;;;;15.15;10.80;;;9.30;99.90;;;;;;5127712;27;20653;-78
2022/09/24 04:12:57;;;;;;;12.93;11.23;;;9.20;99.90;;;;;;5129938;27;20054;-78
2022/09/24 04:15:23;;;;;;;14.20;11.35;;;9.20;99.90;;;;;;5121887;27;20024;-78
2022/09/24 04:17:56;;;;;;;13.55;11.20;;;9.10;99.90;;;;;;5139244;27;20054;-78
2022/09/24 04:20:27;;;;;;;13.35;11.43;;;9.10;99.90;;;;;;5124999;27;20035;-78
2022/09/24 04:22:55;;;;;;;14.38;11.00;;;9.10;99.90;;;;;;5140744;27;20495;-78
2022/09/24 04:25:22;;;;;;;11.98;10.68;;;9.00;99.90;;;;;;5145139;27;20031;-78
2022/09/24 04:27:56;;;;;;;16.35;11.38;;;8.90;99.90;;;;;;5137832;27;20049;-78
2022/09/24 04:30:23;;;;;;;12.77;11.00;;;8.90;99.90;;;;;;5116259;27;20122;-78
2022/09/24 04:32:50;;;;;;;13.98;12.13;;;8.80;99.90;;;;;;5126739;27;20034;-78
2022/09/24 04:35:17;;;;;;;14.57;11.70;;;8.80;99.90;;;;;;5140858;27;20027;-78
2022/09/24 04:37:43;;;;;;;13.68;11.25;;;8.80;99.90;;;;;;5130261;27;20034;-77
2022/09/24 04:40:11;;;;;;;13.43;11.77;;;8.70;99.90;;;;;;5130192;27;20032;-78
2022/09/24 04:42:37;;;;;;;12.45;10.73;;;8.70;99.90;;;;;;5133072;27;20400;-78
2022/09/24 04:45:05;;;;;;;13.35;10.50;;;8.70;99.90;;;;;;5119295;27;20019;-78
2022/09/24 04:47:30;;;;;;;11.00;9.68;;;8.60;99.90;;;;;;5116289;27;20490;-78
2022/09/24 04:49:57;;;;;;;13.57;11.20;;;8.70;99.90;;;;;;5127565;27;20034;-78
2022/09/24 04:52:25;;;;;;;13.02;11.13;;;8.60;99.90;;;;;;5132641;27;20029;-78
2022/09/24 04:54:51;;;;;;;11.45;10.25;;;8.60;99.90;;;;;;5133012;27;20023;-78
2022/09/24 04:57:16;;;;;;;10.38;9.35;;;8.60;99.90;;;;;;5122710;27;20126;-78
2022/09/24 04:59:43;;;;;;;11.38;9.68;;;8.50;99.90;;;;;;5118686;27;20619;-78
2022/09/24 05:02:08;;;;;;;13.13;11.73;;;8.50;99.90;;;;;;5124729;27;20023;-78
2022/09/24 05:04:37;;;;;;;12.55;11.20;;;8.50;99.90;;;;;;5107524;27;20026;-78
2022/09/24 05:07:03;;;;;;;12.18;10.57;;;8.50;99.90;;;;;;5110073;27;20086;-78
2022/09/24 05:09:33;;;;;;;12.32;10.85;;;8.40;99.90;;;;;;5140677;27;20602;-78
2022/09/24 05:11:58;;;;;;;12.70;11.30;;;8.40;99.90;;;;;;5136836;27;20072;-78
2022/09/24 05:14:25;;;;;;;11.85;10.55;;;8.40;99.90;;;;;;5123517;27;20018;-79
2022/09/24 05:16:50;;;;;;;12.63;11.02;;;8.40;99.90;;;;;;5124119;27;20422;-78
2022/09/24 05:19:16;;;;;;;12.60;10.52;;;8.40;99.90;;;;;;5134671;27;20038;-79
2022/09/24 05:21:42;;;;;;;11.95;10.70;;;8.30;99.90;;;;;;5131752;27;20114;-77
2022/09/24 05:24:07;;;;;;;12.27;10.13;;;8.30;99.90;;;;;;5129591;27;20054;-77
2022/09/24 05:29:17;;;;;;;10.48;9.32;;;8.30;99.90;;;;;;5124410;27;20848;-78
2022/09/24 05:31:43;;;;;;;11.43;9.15;;;8.40;99.90;;;;;;5131682;27;20436;-78
2022/09/24 05:34:08;;;;;;;9.82;8.88;;;8.40;99.90;;;;;;5121199;27;20311;-78
2022/09/24 05:36:34;;;;;;;9.50;8.52;;;8.40;99.90;;;;;;5119591;27;20035;-77
2022/09/24 05:39:00;;;;;;;11.30;9.85;;;8.40;99.90;;;;;;5128228;27;20398;-78
2022/09/24 05:41:25;;;;;;;11.07;9.13;;;8.40;99.90;;;;;;5107478;27;20180;-78
2022/09/24 05:43:51;;;;;;;10.15;8.55;;;8.50;99.90;;;;;;5121433;27;20506;-74
2022/09/24 05:46:17;;;;;;;12.13;9.18;;;8.50;99.90;;;;;;5136217;27;20043;-78
2022/09/24 05:48:43;;;;;;;9.45;8.55;;;8.50;99.90;;;;;;5115461;27;20484;-78
2022/09/24 05:51:08;;;;;;;11.35;9.48;;;8.50;99.90;;;;;;5111339;27;20094;-77
2022/09/24 05:53:34;;;;;;;9.52;8.10;;;8.60;99.90;;;;;;5114600;27;20015;-77
2022/09/24 05:56:00;;;;;;;9.38;8.18;;;8.70;99.90;;;;;;5111087;27;20037;-77
2022/09/24 05:58:26;;;;;;;10.00;8.32;;;8.70;99.90;;;;;;5114826;27;20027;-79
2022/09/24 06:00:51;;;;;;;9.60;8.60;;;8.80;99.90;;;;;;5123265;27;20455;-80
2022/09/24 06:03:18;;;;;;;13.38;10.95;;;8.80;99.90;;;;;;5130177;27;20110;-76
2022/09/24 06:05:48;;;;;;;17.00;14.27;;;8.90;99.90;;;;;;5131601;27;20027;-75
2022/09/24 06:08:18;;;;;;;15.65;13.55;;;8.90;99.90;;;;;;5126393;27;20053;-80
2022/09/24 06:10:46;;;;;;;16.83;14.70;;;8.90;99.90;;;;;;5108232;27;20180;-78
2022/09/24 06:13:13;;;;;;;15.50;13.90;;;9.00;99.90;;;;;;5128765;27;20027;-76
2022/09/24 06:15:40;;;;;;;14.82;12.57;;;9.00;99.90;;;;;;5115158;27;20103;-77
2022/09/24 06:18:07;;;;;;;19.17;13.85;;;9.10;99.90;;;;;;5102191;28;20492;-78
2022/09/24 06:20:33;;;;;;;18.80;13.57;;;9.20;99.90;;;;;;5129782;27;20482;-82
2022/09/24 06:22:59;;;;;;;14.77;13.18;;;9.20;99.90;;;;;;5127848;27;20117;-80
2022/09/24 06:25:25;;;;;;;13.63;12.15;;;9.30;99.90;;;;;;5127427;27;20163;-83
2022/09/24 06:28:02;;;;;;;15.32;12.23;;;9.30;99.90;;;;;;5123273;27;20024;-78
2022/09/24 06:30:31;;;;;;;16.52;12.32;;;9.30;99.90;;;;;;5109058;27;20023;-83
2022/09/24 06:33:01;;;;;;;16.08;14.02;;;9.40;99.90;;;;;;5126318;27;20027;-84
2022/09/24 06:35:27;;;;;;;16.70;13.75;;;9.40;99.90;;;;;;5126237;27;20027;-81
2022/09/24 06:37:52;;;;;;;15.32;13.55;;;9.40;99.90;;;;;;5141275;27;20083;-83
2022/09/24 06:40:18;;;;;;;15.68;12.52;;;9.50;99.90;;;;;;5139332;27;20478;-81
2022/09/24 06:42:43;;;;;;;17.38;13.77;;;9.40;99.90;;;;;;5114097;27;20114;-77
2022/09/24 06:45:10;;;;;;;15.45;13.85;;;9.50;99.90;;;;;;5119084;27;20032;-77
2022/09/24 06:47:35;;;;;;;17.58;13.48;;;9.50;99.90;;;;;;5115731;27;20038;-77
2022/09/24 06:50:01;;;;;;;17.70;11.93;;;9.50;99.90;;;;;;5128015;27;20031;-76
2022/09/24 06:52:29;;;;;;;20.20;13.30;;;9.50;99.90;;;;;;5132498;27;20089;-76
2022/09/24 06:54:55;;;;;;;15.13;12.75;;;9.50;99.90;;;;;;5125180;27;20027;-78
2022/09/24 06:57:21;;;;;;;16.02;13.60;;;9.50;99.90;;;;;;5129224;27;20015;-78
2022/09/24 06:59:47;;;;;;;15.57;13.00;;;9.50;99.90;;;;;;5121191;27;20171;-80
2022/09/24 07:02:12;;;;;;;19.23;14.75;;;9.60;99.90;;;;;;5130810;27;20075;-82
2022/09/24 07:04:38;;;;;;;15.70;13.20;;;9.60;99.90;;;;;;5119231;27;20279;-80
2022/09/24 07:09:49;;;;;;;13.35;11.38;;;9.70;99.90;;;;;;5122909;27;20091;-79
2022/09/24 07:12:14;;;;;;;16.42;11.05;;;9.70;99.90;;;;;;5125117;27;20019;-78
2022/09/24 07:14:40;;;;;;;13.13;9.77;;;9.70;99.90;;;;;;5124760;27;20018;-79
2022/09/24 07:17:05;;;;;;;14.15;10.70;;;9.70;99.90;;;;;;5123740;27;20478;-82
2022/09/24 07:19:31;;;;;;;13.73;12.18;;;9.70;99.90;;;;;;5126677;27;20028;-81
2022/09/24 07:21:56;;;;;;;15.23;12.77;;;9.70;99.90;;;;;;5119752;27;20063;-81
2022/09/24 07:24:22;;;;;;;14.35;11.82;;;9.70;99.90;;;;;;5136733;27;20494;-81
2022/09/24 07:26:48;;;;;;;14.25;11.38;;;9.80;99.90;;;;;;5145678;27;20068;-81
2022/09/24 07:29:13;;;;;;;12.73;9.75;;;9.80;99.90;;;;;;5135453;27;20025;-80
2022/09/24 07:31:39;;;;;;;13.85;10.80;;;9.80;99.90;;;;;;5116668;27;20725;-81
2022/09/24 07:34:07;;;;;;;14.30;10.55;;;9.90;99.90;;;;;;5123050;27;20015;-80
2022/09/24 07:36:33;;;;;;;11.15;9.30;;;9.90;99.90;;;;;;5104996;28;20447;-80
2022/09/24 07:39:00;;;;;;;12.02;9.88;;;9.90;99.90;;;;;;5106786;28;20063;-80
2022/09/24 07:41:25;;;;;;;12.88;9.57;;;10.00;99.90;;;;;;5118432;27;20180;-79
2022/09/24 07:43:53;;;;;;;11.68;9.90;;;10.00;99.90;;;;;;5126473;28;20069;-79
2022/09/24 07:46:20;;;;;;;11.90;10.65;;;10.10;99.90;;;;;;5090900;28;20032;-79
2022/09/24 07:48:48;;;;;;;13.35;10.38;;;10.10;99.90;;;;;;5094599;28;20063;-79
2022/09/24 07:51:13;;;;;;;11.70;10.45;;;10.20;99.90;;;;;;5101963;28;20055;-79
2022/09/24 07:53:39;;;;;;;12.00;9.77;;;10.30;99.90;;;;;;5095332;28;20055;-79
2022/09/24 07:56:05;;;;;;;14.15;11.93;;;10.50;99.90;;;;;;5095990;28;20031;-79
2022/09/24 07:58:31;;;;;;;16.27;12.55;;;10.60;99.90;;;;;;5088674;28;20031;-79
2022/09/24 08:00:57;;;;;;;18.88;12.98;;;10.70;99.90;;;;;;5123211;28;20344;-79
2022/09/24 08:03:23;;;;;;;19.55;14.25;;;10.80;99.90;;;;;;5126295;28;20543;-79
2022/09/24 08:05:49;;;;;;;18.88;13.10;;;11.00;99.90;;;;;;5124571;28;20031;-79
2022/09/24 08:08:14;;;;;;;23.65;16.25;;;11.20;99.90;;;;;;5100270;28;20024;-79
2022/09/24 08:10:41;;;;;;;22.38;16.08;;;11.40;99.90;;;;;;5096314;28;20028;-79
2022/09/24 08:13:07;;;;;;;22.70;16.50;;;11.60;99.90;;;;;;5095506;28;20035;-79
2022/09/24 08:15:33;;;;;;;27.13;18.20;;;11.70;99.90;;;;;;5105744;28;20044;-79
2022/09/24 08:18:03;;;;;;;43.20;27.60;;;11.80;99.90;;;;;;5098766;28;20039;-79
2022/09/24 08:20:31;;;;;;;35.95;23.95;;;12.00;99.90;;;;;;5098226;28;20092;-79
2022/09/24 08:23:04;;;;;;;29.35;20.30;;;12.10;99.90;;;;;;5107967;28;20115;-79
2022/09/24 08:25:31;;;;;;;26.50;18.33;;;;;;;;;;5088660;28;20032;-79
2022/09/24 08:28:06;;;;;;;23.85;17.83;;;12.20;99.90;;;;;;5084444;28;20423;-78
2022/09/24 08:30:34;;;;;;;30.65;20.08;;;12.20;99.90;;;;;;5091680;28;20035;-78
2022/09/24 08:32:59;;;;;;;25.88;18.45;;;12.30;99.90;;;;;;5099257;28;20494;-78
2022/09/24 08:35:26;;;;;;;23.60;17.55;;;12.40;99.90;;;;;;5084860;28;20028;-78
2022/09/24 08:37:54;;;;;;;19.25;15.23;;;12.50;99.90;;;;;;5081270;28;20024;-78
2022/09/24 08:40:26;;;;;;;18.30;13.75;;;12.70;99.90;;;;;;5119259;27;20443;-78
2022/09/24 08:42:57;;;;;;;18.80;14.50;;;12.80;99.90;;;;;;5109691;27;20039;-78
2022/09/24 08:48:21;;;;;;;22.08;15.02;;;12.90;99.90;;;;;;5126516;27;20041;-78
2022/09/24 08:50:59;;;;;;;18.17;14.52;;;13.10;99.90;;;;;;5128306;27;20023;-77
2022/09/24 08:53:31;;;;;;;20.90;14.77;;;13.20;99.90;;;;;;5115917;27;20038;-78
2022/09/24 08:56:01;;;;;;;21.20;15.40;;;13.30;99.90;;;;;;5137804;27;20128;-78
2022/09/24 08:58:59;;;;;;;20.35;14.07;;;13.40;99.90;;;;;;5126249;27;20027;-78
2022/09/24 09:01:41;;;;;;;18.02;13.85;;;13.60;99.90;;;;;;5131040;27;20035;-78
2022/09/24 09:04:27;;;;;;;14.80;12.93;;;13.70;99.90;;;;;;5127577;27;20595;-78
2022/09/24 09:07:11;;;;;;;18.33;13.75;;;13.80;99.90;;;;;;5130828;27;20027;-78
2022/09/24 09:09:36;;;;;;;;;;;13.90;99.90;;;;;;5132212;27;20024;-78
2022/09/24 09:12:04;;;;;;;14.43;12.10;;;13.90;99.90;;;;;;5109520;27;20499;-75
2022/09/24 09:14:30;;;;;;;13.50;11.73;;;13.90;99.90;;;;;;5116249;27;20024;-78
2022/09/24 09:17:05;;;;;;;14.90;11.60;;;13.90;99.90;;;;;;5131899;27;20061;-79
2022/09/24 09:19:34;;;;;;;14.60;11.73;;;14.00;99.90;;;;;;5116664;27;20076;-79
2022/09/24 09:22:12;;;;;;;16.40;11.80;;;13.90;99.90;;;;;;5127495;27;20531;-79
2022/09/24 09:24:49;;;;;;;14.32;11.65;;;14.00;99.90;;;;;;5113351;27;20572;-78
2022/09/24 09:27:17;;;;;;;12.88;11.05;;;13.90;99.90;;;;;;5148387;27;20034;-77
2022/09/24 09:29:47;;;;;;;15.05;12.15;;;13.90;99.90;;;;;;5140271;27;20051;-77
2022/09/24 09:32:29;;;;;;;12.90;11.50;;;14.00;99.90;;;;;;5123911;27;20030;-78
2022/09/24 09:35:07;;;;;;;15.95;11.77;;;14.00;99.90;;;;;;5131115;27;20028;-78
2022/09/24 09:38:02;;;;;;;13.27;11.88;;;14.10;99.90;;;;;;5114688;27;20032;-77
2022/09/24 09:40:36;;;;;;;13.50;11.68;;;14.10;99.90;;;;;;5122307;27;20675;-77
2022/09/24 09:43:07;;;;;;;17.90;11.80;;;14.20;99.90;;;;;;5141967;27;20049;-77
2022/09/24 09:45:39;;;;;;;11.88;10.63;;;14.30;99.90;;;;;;5127827;27;20047;-77
2022/09/24 09:48:11;;;;;;;12.98;10.98;;;14.30;99.90;;;;;;5122015;27;20035;-78
2022/09/24 09:50:46;;;;;;;13.15;10.43;;;14.50;99.90;;;;;;5112325;27;20193;-77
2022/09/24 09:53:23;;;;;;;12.77;10.60;;;14.60;99.90;;;;;;5116733;27;20116;-78
2022/09/24 09:56:05;;;;;;;14.13;10.93;;;14.60;99.90;;;;;;4400779;27;10001278;-78
2022/09/24 09:58:33;;;;;;;12.73;11.13;;;14.70;99.90;;;;;;5102432;27;20059;-77
2022/09/24 10:01:12;;;;;;;13.98;10.52;;;14.80;99.90;;;;;;5097723;27;20155;-80
2022/09/24 10:03:43;;;;;;;15.07;10.43;;;14.80;99.90;;;;;;5106471;27;20024;-87
2022/09/24 10:06:12;;;;;;;14.90;10.30;;;14.90;99.90;;;;;;5090505;27;20081;-87
2022/09/24 10:08:39;;;;;;;11.00;9.80;;;15.00;99.90;;;;;;5093987;27;20110;-85
2022/09/24 10:11:06;;;;;;;11.68;10.13;;;15.10;99.90;;;;;;5104270;27;20503;-84
2022/09/24 10:13:32;;;;;;;13.02;10.52;;;15.20;99.90;;;;;;5110030;27;20059;-84
2022/09/24 10:16:03;;;;;;;12.10;9.75;;;15.30;99.90;;;;;;5109945;27;20027;-86
2022/09/24 10:18:36;;;;;;;12.10;9.43;;;15.40;99.90;;;;;;5111281;27;20030;-83
2022/09/24 10:21:03;;;;;;;;;;;15.50;99.90;;;;;;5109375;27;20101;-82
2022/09/24 10:23:36;;;;;;;10.55;8.80;;;15.70;99.90;;;;;;5100390;27;19911;-82
2022/09/24 10:26:03;;;;;;;12.38;10.13;;;15.70;99.90;;;;;;5097239;27;20027;-84
2022/09/24 10:31:22;;;;;;;9.82;8.65;;;16.00;99.90;;;;;;5121323;27;20223;-86
2022/09/24 10:33:51;;;;;;;10.23;8.50;;;16.10;99.90;;;;;;5126423;27;20023;-82
2022/09/24 10:36:25;;;;;;;13.05;8.10;;;16.30;99.90;;;;;;5126050;27;20977;-81
2022/09/24 10:39:06;;;;;;;10.52;8.23;;;16.40;99.90;;;;;;5136133;27;20054;-81
2022/09/24 10:41:32;;;;;;;8.63;7.28;;;16.50;99.90;;;;;;5109690;27;20040;-80
2022/09/24 10:44:03;;;;;;;9.05;7.90;;;16.60;99.90;;;;;;5097465;27;20356;-81
2022/09/24 10:46:43;;;;;;;10.93;6.32;;;16.80;99.90;;;;;;5109292;27;20061;-83
2022/09/24 10:49:47;;;;;;;9.55;6.25;;;16.90;99.90;;;;;;5105889;27;20019;-88
2022/09/24 10:52:50;;;;;;;9.50;7.23;;;16.90;99.90;;;;;;5107672;27;20027;-82
2022/09/24 10:55:35;;;;;;;8.55;6.70;;;16.90;99.90;;;;;;5104417;27;20036;-81
2022/09/24 10:58:25;;;;;;;8.40;6.03;;;17.00;99.90;;;;;;5105498;27;20031;-83
2022/09/24 11:01:09;;;;;;;7.57;5.90;;;17.10;99.90;;;;;;5110827;27;20061;-81
2022/09/24 11:03:53;;;;;;;8.15;5.72;;;17.10;99.90;;;;;;5106327;27;20023;-84
2022/09/24 11:06:37;;;;;;;7.10;5.57;;;17.20;99.90;;;;;;5113523;27;20059;-84
2022/09/24 11:09:21;;;;;;;10.27;5.90;;;17.30;99.90;;;;;;5104581;27;20521;-81
2022/09/24 11:11:57;;;;;;;11.60;5.93;;;17.30;99.90;;;;;;5111197;27;20038;-82
2022/09/24 11:14:22;;;;;;;7.65;6.85;;;17.30;99.90;;;;;;5104692;27;20023;-81
2022/09/24 11:16:51;;;;;;;7.85;6.40;;;17.30;99.90;;;;;;5096799;27;20012;-82
2022/09/24 11:19:42;;;;;;;9.35;5.97;;;17.30;99.90;;;;;;5097791;27;20056;-81
2022/09/24 11:22:08;;;;;;;10.18;6.28;;;17.30;99.90;;;;;;5109615;27;20480;-82
2022/09/24 11:25:07;;;;;;;6.45;5.70;;;17.30;99.90;;;;;;5110445;27;20027;-81
2022/09/24 11:28:04;;;;;;;6.22;5.43;;;17.30;99.90;;;;;;5103029;27;20644;-83
2022/09/24 11:30:56;;;;;;;8.45;5.68;;;17.30;99.90;;;;;;5113546;27;20093;-82
2022/09/24 11:33:40;;;;;;;8.80;5.95;;;17.40;99.90;;;;;;5105406;27;20039;-83
2022/09/24 11:36:23;;;;;;;10.05;6.18;;;17.50;99.90;;;;;;5107799;27;20020;-82
2022/09/24 11:39:15;;;;;;;7.68;5.80;;;17.50;99.90;;;;;;5116070;27;20240;-81
2022/09/24 11:41:49;;;;;;;9.63;5.80;;;17.50;99.90;;;;;;5100873;27;20462;-81
2022/09/24 11:44:44;;;;;;;8.00;5.50;;;17.50;99.90;;;;;;5109064;28;20035;-81
2022/09/24 11:47:39;;;;;;;11.38;5.60;;;17.60;99.90;;;;;;5102202;28;20490;-82
2022/09/24 11:50:27;;;;;;;8.27;5.97;;;17.60;99.90;;;;;;5105279;28;20050;-80
2022/09/24 11:53:01;;;;;;;9.98;6.00;;;17.70;99.90;;;;;;5110803;28;20077;-79
2022/09/24 11:55:31;;;;;;;8.35;6.20;;;17.80;99.90;;;;;;5102885;28;20031;-80
2022/09/24 11:58:23;;;;;;;11.38;6.47;;;17.90;99.90;;;;;;5106695;28;20059;-80
2022/09/24 12:01:09;;;;;;;9.10;5.90;;;17.90;99.90;;;;;;5108124;28;20540;-81
2022/09/24 12:03:44;;;;;;;9.40;5.85;;;18.00;99.90;;;;;;5107298;28;20481;-80
2022/09/24 12:06:14;;;;;;;10.70;6.50;;;18.10;99.90;;;;;;5106295;28;20514;-80
2022/09/24 12:09:02;;;;;;;14.32;5.65;;;18.20;99.90;;;;;;5098846;28;20028;-81
2022/09/24 12:11:40;;;;;;;8.52;4.90;;;18.20;99.90;;;;;;5105784;28;20027;-81
2022/09/24 12:14:46;;;;;;;7.45;5.40;;;18.30;99.90;;;;;;5098921;28;20023;-82
2022/09/24 12:17:23;;;;;;;7.20;4.45;;;18.30;99.90;;;;;;5081475;27;20503;-80
2022/09/24 12:20:23;;;;;;;8.88;5.72;;;18.40;99.90;;;;;;5089734;27;20585;-82
2022/09/24 12:22:58;;;;;;;12.32;6.60;;;18.60;99.90;;;;;;5068506;27;20086;-83
2022/09/24 12:25:31;;;;;;;10.15;5.13;;;18.80;99.90;;;;;;5106169;27;20121;-82
2022/09/24 12:27:57;;;;;;;7.50;5.13;;;18.90;99.90;;;;;;5103008;27;20718;-83
2022/09/24 12:33:24;;;;;;;5.45;3.88;;;19.30;99.50;;;;;;5103832;27;20084;-82
2022/09/24 12:36:07;;;;;;;5.68;3.40;;;19.50;98.70;;;;;;5107474;27;20022;-82
2022/09/24 12:38:49;;;;;;;7.18;3.30;;;19.70;96.90;;;;;;5114430;27;20023;-82
2022/09/24 12:41:28;;;;;;;6.15;3.10;;;19.80;96.90;;;;;;5107095;27;20167;-82
2022/09/24 12:44:12;;;;;;;5.25;2.90;;;19.90;95.10;;;;;;5113911;27;20032;-82
2022/09/24 12:46:51;;;;;;;4.63;2.70;;;20.00;95.50;;;;;;5122670;27;20043;-82
2022/09/24 12:49:26;;;;;;;3.83;2.47;;;20.20;92.90;;;;;;5121510;27;20015;-82
2022/09/24 12:52:00;;;;;;;3.38;2.45;;;20.30;93.40;;;;;;5128890;27;20487;-82
2022/09/24 12:54:31;;;;;;;4.22;2.78;;;20.40;91.70;;;;;;5134504;27;20027;-84
2022/09/24 12:57:11;;;;;;;4.43;2.55;;;20.50;91.20;;;;;;5127511;27;20713;-85
2022/09/24 13:00:27;;;;;;;3.65;2.45;;;20.70;91.60;;;;;;5114494;27;22111;-83
2022/09/24 13:02:53;;;;;;;4.88;2.33;;;20.60;89.60;;;;;;5106704;27;20260;-85
2022/09/24 13:05:22;;;;;;;2.60;2.00;;;20.60;88.80;;;;;;5127697;27;22184;-85
2022/09/24 13:08:23;;;;;;;5.43;2.20;;;20.60;87.30;;;;;;5127325;27;20020;-85
2022/09/24 13:11:04;;;;;;;4.80;2.35;;;20.60;87.00;;;;;;5116789;27;20538;-85
2022/09/24 13:13:32;;;;;;;2.67;1.83;;;20.50;86.00;;;;;;5118468;27;20092;-85
2022/09/24 13:16:04;;;;;;;3.30;1.88;;;20.50;85.20;;;;;;5109109;27;20106;-85
2022/09/24 13:18:34;;;;;;;5.30;2.30;;;20.40;86.80;;;;;;5109456;28;20023;-85
2022/09/24 13:21:01;;;;;;;5.75;2.45;;;20.30;87.30;;;;;;5111052;27;20019;-85